createdAt,value
2018-09-30T00:02:12.973Z,83.05
2018-09-30T00:04:42.907Z,82.68
2018-09-30T00:07:13.300Z,82.40
2018-09-30T00:09:42.858Z,81.30
2018-09-30T00:12:13.787Z,82.65
2018-09-30T00:14:43.340Z,82.80
2018-09-30T00:17:13.751Z,82.72
2018-09-30T00:19:43.263Z,82.93
2018-09-30T00:22:13.080Z,83.75
2018-09-30T00:24:48.509Z,84.11
2018-09-30T00:27:20.202Z,83.99
2018-09-30T00:29:50.455Z,83.52
2018-09-30T00:32:20.909Z,84.42
2018-09-30T00:34:50.923Z,84.00
2018-09-30T00:37:20.805Z,83.75
2018-09-30T00:39:51.379Z,82.94
2018-09-30T00:42:21.430Z,83.39
2018-09-30T00:44:50.891Z,83.71
2018-09-30T00:47:20.640Z,83.39
2018-09-30T00:49:50.383Z,83.06
2018-09-30T00:52:22.135Z,83.41
2018-09-30T00:54:54.869Z,82.66
2018-09-30T00:57:24.886Z,82.83
2018-09-30T00:59:54.587Z,82.99
2018-09-30T01:02:24.786Z,83.40
2018-09-30T01:04:54.533Z,82.78
2018-09-30T01:07:24.157Z,83.76
2018-09-30T01:09:54.492Z,83.68
2018-09-30T01:12:29.138Z,83.90
2018-09-30T01:14:59.025Z,83.17
2018-09-30T01:17:28.600Z,83.41
2018-09-30T01:19:58.125Z,83.28
2018-09-30T01:22:28.820Z,83.41
2018-09-30T01:24:58.449Z,83.87
2018-09-30T01:27:27.967Z,83.51
2018-09-30T01:29:57.635Z,83.82
2018-09-30T01:32:27.147Z,84.11
2018-09-30T01:34:56.794Z,84.11
2018-09-30T01:37:26.243Z,83.82
2018-09-30T01:39:56.430Z,84.34
2018-09-30T01:42:26.058Z,84.19
2018-09-30T01:44:55.805Z,84.25
2018-09-30T01:47:26.018Z,84.45
2018-09-30T01:49:55.840Z,84.09
2018-09-30T01:52:59.535Z,84.57
2018-09-30T01:55:29.022Z,84.35
2018-09-30T01:57:58.713Z,84.54
2018-09-30T02:00:29.182Z,84.61
2018-09-30T02:02:59.149Z,84.47
2018-09-30T02:05:29.136Z,84.26
2018-09-30T02:07:58.681Z,84.14
2018-09-30T02:10:28.480Z,83.17
2018-09-30T02:12:59.048Z,84.22
2018-09-30T02:15:29.264Z,84.05
2018-09-30T02:17:58.848Z,84.53
2018-09-30T02:20:28.649Z,84.36
2018-09-30T02:23:00.031Z,84.11
2018-09-30T02:25:29.669Z,83.57
2018-09-30T02:27:59.249Z,85.05
2018-09-30T02:30:28.807Z,84.83
2018-09-30T02:32:59.600Z,84.91
2018-09-30T02:35:30.506Z,85.42
2018-09-30T02:38:01.278Z,85.20
2018-09-30T02:40:31.653Z,84.76
2018-09-30T02:43:02.352Z,84.01
2018-09-30T02:45:33.041Z,84.36
2018-09-30T02:48:02.601Z,83.33
2018-09-30T02:50:32.364Z,82.93
2018-09-30T02:53:02.007Z,82.23
2018-09-30T02:55:31.497Z,82.29
2018-09-30T02:58:01.240Z,83.19
2018-09-30T03:00:30.827Z,83.11
2018-09-30T03:03:00.265Z,83.17
2018-09-30T03:05:29.895Z,83.52
2018-09-30T03:08:04.533Z,83.58
2018-09-30T03:10:34.095Z,84.08
2018-09-30T03:13:03.670Z,83.99
2018-09-30T03:15:33.191Z,83.52
2018-09-30T03:18:02.950Z,83.98
2018-09-30T03:20:32.505Z,83.19
2018-09-30T03:23:01.994Z,82.95
2018-09-30T03:25:31.680Z,82.85
2018-09-30T03:28:01.247Z,83.54
2018-09-30T03:30:31.009Z,83.46
2018-09-30T03:33:00.594Z,82.92
2018-09-30T03:35:30.341Z,84.16
2018-09-30T03:38:00.081Z,84.03
2018-09-30T03:40:29.679Z,83.66
2018-09-30T03:42:59.950Z,83.44
2018-09-30T03:45:29.592Z,83.52
2018-09-30T03:47:59.124Z,83.60
2018-09-30T03:50:29.541Z,83.64
2018-09-30T03:52:59.064Z,83.09
2018-09-30T03:55:28.862Z,82.77
2018-09-30T03:57:58.405Z,82.11
2018-09-30T04:00:28.142Z,82.24
2018-09-30T04:02:57.697Z,82.69
2018-09-30T04:05:27.234Z,82.65
2018-09-30T04:07:56.858Z,82.38
2018-09-30T04:10:26.449Z,82.17
2018-09-30T04:12:56.011Z,82.49
2018-09-30T04:15:25.494Z,82.93
2018-09-30T04:17:55.126Z,83.49
2018-09-30T04:20:24.596Z,82.80
2018-09-30T04:22:54.102Z,82.82
2018-09-30T04:25:24.538Z,82.99
2018-09-30T04:27:54.260Z,82.91
2018-09-30T04:30:23.876Z,82.87
2018-09-30T04:32:53.382Z,83.08
2018-09-30T04:35:23.093Z,82.29
2018-09-30T04:37:52.706Z,82.92
2018-09-30T04:40:22.222Z,82.25
2018-09-30T04:42:51.934Z,83.06
2018-09-30T04:45:21.453Z,83.34
2018-09-30T04:47:50.867Z,83.20
2018-09-30T04:50:20.546Z,82.90
2018-09-30T04:52:50.663Z,82.97
2018-09-30T04:55:20.181Z,83.68
2018-09-30T04:57:49.899Z,83.14
2018-09-30T05:00:19.490Z,83.48
2018-09-30T05:02:49.800Z,83.46
2018-09-30T05:05:19.375Z,83.20
2018-09-30T05:07:48.834Z,83.15
2018-09-30T05:10:18.535Z,83.24
2018-09-30T05:12:48.691Z,83.02
2018-09-30T05:15:18.117Z,83.28
2018-09-30T05:17:47.867Z,83.59
2018-09-30T05:20:17.442Z,83.87
2018-09-30T05:22:46.914Z,84.67
2018-09-30T05:25:16.476Z,84.20
2018-09-30T05:27:46.015Z,84.49
2018-09-30T05:30:16.214Z,84.44
2018-09-30T05:32:45.897Z,84.32
2018-09-30T05:35:15.505Z,85.46
2018-09-30T05:37:45.102Z,85.72
2018-09-30T05:40:14.729Z,86.06
2018-09-30T05:42:44.265Z,86.26
2018-09-30T05:45:13.988Z,86.63
2018-09-30T05:47:43.586Z,86.08
2018-09-30T05:50:13.386Z,86.04
2018-09-30T05:52:42.817Z,86.48
2018-09-30T05:55:12.182Z,86.17
2018-09-30T05:57:41.681Z,85.72
2018-09-30T06:00:11.093Z,85.33
2018-09-30T06:02:40.487Z,85.50
2018-09-30T06:05:09.928Z,85.34
2018-09-30T06:07:39.353Z,85.14
2018-09-30T06:10:08.727Z,85.50
2018-09-30T06:12:38.143Z,85.14
2018-09-30T06:15:07.555Z,85.04
2018-09-30T06:17:37.754Z,84.96
2018-09-30T06:20:08.034Z,84.67
2018-09-30T06:22:37.519Z,84.76
2018-09-30T06:25:06.921Z,84.15
2018-09-30T06:27:36.396Z,83.92
2018-09-30T06:30:06.102Z,83.88
2018-09-30T06:32:35.615Z,83.41
2018-09-30T06:35:05.020Z,83.48
2018-09-30T06:37:34.486Z,83.29
2018-09-30T06:40:03.832Z,82.43
2018-09-30T06:42:33.257Z,82.60
2018-09-30T06:45:02.714Z,82.03
2018-09-30T06:47:32.040Z,82.41
2018-09-30T06:50:01.462Z,81.46
2018-09-30T06:52:30.766Z,81.75
2018-09-30T06:55:00.501Z,82.16
2018-09-30T06:57:30.685Z,81.85
2018-09-30T07:00:00.050Z,81.47
2018-09-30T07:02:29.509Z,82.10
2018-09-30T07:04:58.912Z,81.90
2018-09-30T07:07:28.286Z,82.18
2018-09-30T07:09:57.633Z,82.49
2018-09-30T07:12:27.026Z,82.77
2018-09-30T07:14:56.342Z,82.60
2018-09-30T07:17:25.715Z,82.57
2018-09-30T07:19:55.125Z,82.18
2018-09-30T07:22:24.506Z,82.65
2018-09-30T07:24:53.914Z,82.37
2018-09-30T07:27:23.279Z,82.14
2018-09-30T07:29:53.557Z,82.92
2018-09-30T07:32:22.922Z,82.54
2018-09-30T07:34:52.327Z,83.00
2018-09-30T07:37:21.746Z,81.36
2018-09-30T07:39:51.238Z,78.27
2018-09-30T07:42:20.674Z,77.87
2018-09-30T07:44:50.117Z,77.00
2018-09-30T07:47:19.480Z,76.44
2018-09-30T07:49:48.865Z,74.73
2018-09-30T07:52:19.253Z,73.45
2018-09-30T07:54:48.626Z,72.73
2018-09-30T07:57:18.019Z,71.20
2018-09-30T07:59:47.426Z,70.91
2018-09-30T08:03:46.559Z,70.16
2018-09-30T08:06:15.923Z,68.66
2018-09-30T08:08:45.354Z,68.86
2018-09-30T08:11:14.745Z,68.39
2018-09-30T08:13:44.354Z,68.80
2018-09-30T08:16:14.022Z,67.44
2018-09-30T08:18:43.433Z,66.94
2018-09-30T08:21:12.830Z,65.85
2018-09-30T08:23:42.363Z,66.63
2018-09-30T08:26:12.281Z,64.72
2018-09-30T08:28:41.959Z,65.04
2018-09-30T08:31:11.410Z,63.62
2018-09-30T08:33:40.872Z,63.22
2018-09-30T08:36:11.045Z,63.99
2018-09-30T08:38:41.788Z,63.40
2018-09-30T08:41:12.303Z,62.54
2018-09-30T08:43:42.911Z,62.52
2018-09-30T08:46:12.354Z,62.32
2018-09-30T08:48:41.687Z,61.87
2018-09-30T08:51:11.109Z,61.98
2018-09-30T08:53:40.572Z,61.35
2018-09-30T08:56:10.181Z,62.21
2018-09-30T08:58:39.686Z,60.40
2018-09-30T09:01:09.067Z,60.95
2018-09-30T09:03:38.510Z,60.28
2018-09-30T09:06:07.890Z,59.50
2018-09-30T09:08:37.396Z,58.92
2018-09-30T09:11:06.459Z,58.96
2018-09-30T09:13:35.878Z,59.40
2018-09-30T09:16:05.371Z,58.86
2018-09-30T09:18:34.802Z,58.98
2018-09-30T09:21:04.219Z,59.02
2018-09-30T09:23:33.585Z,58.61
2018-09-30T09:26:03.007Z,57.78
2018-09-30T09:28:32.385Z,56.94
2018-09-30T09:31:01.819Z,57.47
2018-09-30T09:33:31.206Z,57.09
2018-09-30T09:36:00.578Z,56.16
2018-09-30T09:38:30.222Z,56.10
2018-09-30T09:40:59.570Z,56.03
2018-09-30T09:43:29.015Z,55.50
2018-09-30T09:45:58.364Z,55.86
2018-09-30T09:48:27.894Z,55.13
2018-09-30T09:50:57.367Z,54.80
2018-09-30T09:53:26.858Z,54.80
2018-09-30T09:55:56.369Z,54.76
2018-09-30T09:58:26.017Z,55.37
2018-09-30T10:00:55.508Z,54.70
2018-09-30T10:03:24.970Z,55.89
2018-09-30T10:05:54.514Z,54.54
2018-09-30T10:08:23.917Z,55.03
2018-09-30T10:10:53.326Z,55.04
2018-09-30T10:13:22.826Z,55.38
2018-09-30T10:15:52.941Z,55.55
2018-09-30T10:18:22.345Z,55.41
2018-09-30T10:20:52.453Z,55.46
2018-09-30T10:23:22.057Z,55.12
2018-09-30T10:25:51.494Z,55.29
2018-09-30T10:28:20.840Z,55.22
2018-09-30T10:30:50.229Z,54.86
2018-09-30T10:33:19.545Z,54.28
2018-09-30T10:35:48.997Z,55.45
2018-09-30T10:38:18.412Z,54.91
2018-09-30T10:40:47.817Z,54.74
2018-09-30T10:43:17.297Z,54.09
2018-09-30T10:45:46.706Z,55.17
2018-09-30T10:48:16.309Z,54.93
2018-09-30T10:50:45.679Z,54.56
2018-09-30T10:53:15.039Z,54.68
2018-09-30T10:55:44.455Z,54.69
2018-09-30T10:58:13.947Z,54.63
2018-09-30T11:00:43.459Z,54.69
2018-09-30T11:03:12.981Z,54.59
2018-09-30T11:05:42.405Z,54.67
2018-09-30T11:08:11.819Z,55.40
2018-09-30T11:10:41.234Z,54.60
2018-09-30T11:13:10.622Z,53.88
2018-09-30T11:15:40.065Z,53.72
2018-09-30T11:18:09.444Z,54.23
2018-09-30T11:20:38.869Z,54.42
2018-09-30T11:23:08.274Z,52.28
2018-09-30T11:25:37.703Z,52.78
2018-09-30T11:28:07.215Z,52.28
2018-09-30T11:30:36.675Z,51.62
2018-09-30T11:33:06.096Z,52.63
2018-09-30T11:35:35.937Z,52.55
2018-09-30T11:38:05.437Z,52.56
2018-09-30T11:40:34.902Z,52.26
2018-09-30T11:43:04.351Z,52.23
2018-09-30T11:45:33.847Z,52.31
2018-09-30T11:48:03.338Z,52.57
2018-09-30T11:50:33.256Z,51.99
2018-09-30T11:53:02.626Z,51.78
2018-09-30T11:55:32.073Z,53.04
2018-09-30T11:58:01.717Z,53.47
2018-09-30T12:00:31.197Z,53.33
2018-09-30T12:03:00.724Z,53.01
2018-09-30T12:05:30.180Z,52.97
2018-09-30T12:07:59.596Z,53.53
2018-09-30T12:10:28.987Z,53.15
2018-09-30T12:12:58.421Z,52.76
2018-09-30T12:15:28.726Z,51.95
2018-09-30T12:17:58.366Z,50.78
2018-09-30T12:20:27.742Z,50.26
2018-09-30T12:22:57.156Z,51.14
2018-09-30T12:25:26.590Z,50.35
2018-09-30T12:27:56.030Z,51.07
2018-09-30T12:30:25.567Z,51.70
2018-09-30T12:32:54.946Z,52.78
2018-09-30T12:35:24.588Z,50.34
2018-09-30T12:37:54.095Z,49.24
2018-09-30T12:40:23.694Z,47.57
2018-09-30T12:42:53.158Z,46.41
2018-09-30T12:45:22.519Z,46.75
2018-09-30T12:47:52.041Z,45.22
2018-09-30T12:50:21.418Z,44.16
2018-09-30T12:52:51.168Z,44.22
2018-09-30T12:55:20.606Z,42.16
2018-09-30T12:57:49.990Z,42.82
2018-09-30T13:00:19.358Z,43.30
2018-09-30T13:02:48.940Z,42.74
2018-09-30T13:05:18.439Z,43.20
2018-09-30T13:07:47.871Z,45.61
2018-09-30T13:10:17.460Z,46.97
2018-09-30T13:12:46.846Z,48.69
2018-09-30T13:15:16.229Z,49.14
2018-09-30T13:17:45.620Z,48.98
2018-09-30T13:20:15.117Z,48.51
2018-09-30T13:22:44.511Z,49.17
2018-09-30T13:25:13.913Z,48.65
2018-09-30T13:27:43.477Z,48.72
2018-09-30T13:30:12.827Z,49.67
2018-09-30T13:32:42.305Z,50.21
2018-09-30T13:35:11.695Z,50.48
2018-09-30T13:37:41.998Z,51.18
2018-09-30T13:40:11.460Z,51.12
2018-09-30T13:42:40.719Z,51.44
2018-09-30T13:45:10.577Z,52.83
2018-09-30T13:47:40.056Z,52.33
2018-09-30T13:50:09.489Z,52.48
2018-09-30T13:52:38.889Z,52.18
2018-09-30T13:55:08.437Z,52.84
2018-09-30T13:57:37.939Z,52.64
2018-09-30T14:00:08.462Z,52.64
2018-09-30T14:02:37.941Z,52.83
2018-09-30T14:05:07.435Z,52.07
2018-09-30T14:07:36.838Z,51.72
2018-09-30T14:10:06.390Z,51.80
2018-09-30T14:12:35.850Z,51.70
2018-09-30T14:15:05.256Z,51.40
2018-09-30T14:17:34.740Z,51.92
2018-09-30T14:20:04.186Z,52.06
2018-09-30T14:22:33.626Z,52.00
2018-09-30T14:25:03.038Z,52.40
2018-09-30T14:27:32.497Z,52.53
2018-09-30T14:30:01.911Z,52.31
2018-09-30T14:32:31.289Z,52.13
2018-09-30T14:35:00.650Z,52.09
2018-09-30T14:37:30.084Z,51.72
2018-09-30T14:39:59.445Z,52.13
2018-09-30T14:42:29.021Z,51.04
2018-09-30T14:44:58.489Z,50.76
2018-09-30T14:47:27.877Z,49.54
2018-09-30T14:49:57.312Z,49.49
2018-09-30T14:52:26.695Z,50.00
2018-09-30T14:54:56.127Z,49.62
2018-09-30T14:57:25.631Z,50.74
2018-09-30T14:59:55.055Z,50.19
2018-09-30T15:02:24.476Z,50.71
2018-09-30T15:04:53.941Z,51.49
2018-09-30T15:07:24.131Z,51.97
2018-09-30T15:09:53.543Z,51.87
2018-09-30T15:12:23.170Z,52.12
2018-09-30T15:14:52.715Z,52.04
2018-09-30T15:17:22.262Z,51.13
2018-09-30T15:19:51.718Z,51.87
2018-09-30T15:22:21.055Z,51.72
2018-09-30T15:24:50.467Z,52.88
2018-09-30T15:27:19.870Z,52.81
2018-09-30T15:29:49.337Z,53.25
2018-09-30T15:32:18.901Z,52.56
2018-09-30T15:34:48.424Z,52.81
2018-09-30T15:37:17.913Z,52.64
2018-09-30T15:39:47.303Z,52.32
2018-09-30T15:42:16.754Z,53.45
2018-09-30T15:44:46.224Z,53.14
2018-09-30T15:47:15.790Z,52.98
2018-09-30T15:49:45.230Z,53.71
2018-09-30T15:52:14.763Z,52.73
2018-09-30T15:54:44.265Z,53.64
2018-09-30T15:57:13.668Z,53.98
2018-09-30T15:59:43.110Z,53.44
2018-09-30T16:02:12.511Z,54.17
2018-09-30T16:04:42.017Z,53.96
2018-09-30T16:07:11.301Z,53.94
2018-09-30T16:09:40.701Z,54.73
2018-09-30T16:12:10.183Z,54.03
2018-09-30T16:14:39.522Z,54.41
2018-09-30T16:17:08.951Z,54.43
2018-09-30T16:19:38.419Z,55.57
2018-09-30T16:22:07.837Z,54.92
2018-09-30T16:24:37.294Z,55.10
2018-09-30T16:27:06.727Z,55.44
2018-09-30T16:29:36.142Z,56.63
2018-09-30T16:32:05.523Z,56.36
2018-09-30T16:34:34.968Z,60.67
2018-09-30T16:37:04.536Z,62.88
2018-09-30T16:39:33.989Z,65.22
2018-09-30T16:42:03.330Z,66.37
2018-09-30T16:44:32.915Z,67.39
2018-09-30T16:47:02.313Z,68.42
2018-09-30T16:49:31.745Z,68.67
2018-09-30T16:52:01.481Z,69.42
2018-09-30T16:54:30.858Z,70.44
2018-09-30T16:57:00.336Z,70.76
2018-09-30T16:59:29.806Z,70.62
2018-09-30T17:01:59.298Z,71.29
2018-09-30T17:04:28.778Z,71.01
2018-09-30T17:06:58.378Z,71.60
2018-09-30T17:09:27.915Z,71.73
2018-09-30T17:11:57.310Z,71.67
2018-09-30T17:14:26.878Z,71.69
2018-09-30T17:16:56.487Z,72.70
2018-09-30T17:19:26.025Z,72.51
2018-09-30T17:21:55.593Z,72.71
2018-09-30T17:24:25.132Z,72.66
2018-09-30T17:26:54.569Z,72.63
2018-09-30T17:29:23.949Z,72.57
2018-09-30T17:31:53.376Z,73.17
2018-09-30T17:34:22.851Z,73.52
2018-09-30T17:36:52.510Z,73.20
2018-09-30T17:39:21.995Z,73.97
2018-09-30T17:41:51.467Z,73.78
2018-09-30T17:44:20.912Z,73.42
2018-09-30T17:46:50.309Z,73.90
2018-09-30T17:49:19.698Z,74.49
2018-09-30T17:51:49.232Z,74.17
2018-09-30T17:54:20.683Z,74.77
2018-09-30T17:56:51.111Z,74.92
2018-09-30T17:59:20.618Z,75.56
2018-09-30T18:01:50.762Z,76.12
2018-09-30T18:04:22.527Z,75.86
2018-09-30T18:06:51.925Z,76.74
2018-09-30T18:09:22.201Z,76.33
2018-09-30T18:11:51.566Z,76.53
2018-09-30T18:14:21.030Z,77.15
2018-09-30T18:16:52.516Z,78.05
2018-09-30T18:19:21.964Z,77.92
2018-09-30T18:21:52.334Z,78.48
2018-09-30T18:24:22.635Z,78.96
2018-09-30T18:26:52.978Z,79.03
2018-09-30T18:29:23.367Z,80.00
2018-09-30T18:31:53.241Z,80.09
2018-09-30T18:34:22.773Z,80.25
2018-09-30T18:36:54.304Z,80.61
2018-09-30T18:39:26.039Z,81.32
2018-09-30T18:41:55.900Z,80.79
2018-09-30T18:44:25.428Z,81.57
2018-09-30T18:46:54.819Z,81.39
2018-09-30T18:49:24.286Z,81.66
2018-09-30T18:51:53.748Z,81.40
2018-09-30T18:54:23.487Z,82.38
2018-09-30T18:56:53.027Z,82.14
2018-09-30T18:59:22.874Z,82.44
2018-09-30T19:01:52.313Z,82.14
2018-09-30T19:04:23.568Z,82.85
2018-09-30T19:06:54.602Z,82.84
2018-09-30T19:09:24.122Z,83.38
2018-09-30T19:11:54.215Z,83.35
2018-09-30T19:14:23.726Z,83.81
2018-09-30T19:16:53.650Z,83.91
2018-09-30T19:19:23.146Z,84.55
2018-09-30T19:21:52.646Z,83.69
2018-09-30T19:24:24.491Z,84.29
2018-09-30T19:26:54.850Z,84.06
2018-09-30T19:29:24.325Z,84.29
2018-09-30T19:31:54.709Z,85.01
2018-09-30T19:34:24.405Z,83.92
2018-09-30T19:36:54.513Z,85.18
2018-09-30T19:39:24.338Z,84.50
2018-09-30T19:41:53.955Z,84.45
2018-09-30T19:44:23.271Z,84.24
2018-09-30T19:46:52.836Z,84.64
2018-09-30T19:49:22.273Z,84.72
2018-09-30T19:51:51.775Z,84.24
2018-09-30T19:54:21.587Z,85.03
2018-09-30T19:56:54.554Z,84.43
2018-09-30T19:59:24.345Z,84.60
2018-09-30T20:01:55.230Z,84.62
2018-09-30T20:04:25.178Z,84.30
2018-09-30T20:06:55.209Z,84.71
2018-09-30T20:09:24.650Z,84.64
2018-09-30T20:11:54.012Z,84.56
2018-09-30T20:14:23.946Z,85.33
2018-09-30T20:16:53.416Z,85.06
2018-09-30T20:19:26.182Z,85.76
2018-09-30T20:21:55.654Z,84.81
2018-09-30T20:24:25.544Z,85.25
2018-09-30T20:26:55.134Z,85.22
2018-09-30T20:29:25.410Z,84.82
2018-09-30T20:31:55.057Z,85.17
2018-09-30T20:34:25.338Z,85.61
2018-09-30T20:36:54.801Z,85.46
2018-09-30T20:39:24.182Z,85.54
2018-09-30T20:41:53.645Z,85.82
2018-09-30T20:44:23.279Z,85.84
2018-09-30T20:46:52.816Z,86.31
2018-09-30T20:49:22.263Z,86.81
2018-09-30T20:51:51.786Z,86.58
2018-09-30T20:54:21.273Z,86.67
2018-09-30T20:56:50.928Z,86.63
2018-09-30T20:59:20.675Z,87.44
2018-09-30T21:01:50.402Z,87.84
2018-09-30T21:04:19.939Z,87.32
2018-09-30T21:06:49.418Z,87.61
2018-09-30T21:09:21.789Z,87.37
2018-09-30T21:11:51.340Z,86.70
2018-09-30T21:14:20.745Z,86.78
2018-09-30T21:16:50.985Z,87.00
2018-09-30T21:19:20.686Z,86.77
2018-09-30T21:21:50.139Z,86.18
2018-09-30T21:24:19.520Z,86.76
2018-09-30T21:26:50.490Z,87.42
2018-09-30T21:29:19.874Z,87.45
2018-09-30T21:31:49.341Z,88.39
2018-09-30T21:34:18.795Z,87.58
2018-09-30T21:36:48.903Z,87.65
2018-09-30T21:39:18.711Z,87.28
2018-09-30T21:41:50.247Z,87.00
2018-09-30T21:44:19.723Z,86.19
2018-09-30T21:46:49.086Z,85.41
2018-09-30T21:49:18.538Z,84.91
2018-09-30T21:51:47.998Z,84.96
2018-09-30T21:54:17.642Z,84.23
2018-09-30T21:56:47.023Z,83.43
2018-09-30T21:59:16.719Z,83.57
2018-09-30T22:01:46.374Z,83.37
2018-09-30T22:04:16.080Z,82.99
2018-09-30T22:06:45.607Z,83.29
2018-09-30T22:09:17.000Z,83.52
2018-09-30T22:11:46.637Z,82.93
2018-09-30T22:14:17.197Z,82.67
2018-09-30T22:16:46.697Z,82.90
2018-09-30T22:19:16.327Z,82.53
2018-09-30T22:21:45.831Z,82.91
2018-09-30T22:24:15.273Z,82.14
2018-09-30T22:29:42.482Z,80.63
2018-09-30T22:32:11.985Z,80.63
2018-09-30T22:34:42.177Z,81.28
2018-09-30T22:37:11.635Z,80.30
2018-09-30T22:39:45.016Z,80.84
2018-09-30T22:42:15.530Z,80.31
2018-09-30T22:44:44.980Z,80.53
2018-09-30T22:47:14.863Z,80.36
2018-09-30T22:49:44.302Z,80.66
2018-09-30T22:52:15.463Z,80.44
2018-09-30T22:54:44.862Z,81.20
2018-09-30T22:57:16.713Z,80.92
2018-09-30T22:59:49.454Z,81.35
2018-09-30T23:02:18.996Z,80.88
2018-09-30T23:04:49.106Z,81.14
2018-09-30T23:07:19.306Z,81.10
2018-09-30T23:09:48.834Z,80.76
2018-09-30T23:12:18.501Z,81.70
2018-09-30T23:14:48.327Z,81.40
2018-09-30T23:17:18.310Z,81.43
2018-09-30T23:19:47.751Z,81.68
2018-09-30T23:22:17.230Z,81.92
2018-09-30T23:24:46.699Z,81.54
2018-09-30T23:27:16.271Z,81.63
2018-09-30T23:29:45.742Z,82.14
2018-09-30T23:32:15.187Z,82.66
2018-09-30T23:34:52.785Z,82.29
2018-09-30T23:37:22.914Z,82.40
2018-09-30T23:42:46.844Z,82.01
2018-09-30T23:45:16.350Z,82.10
2018-09-30T23:47:45.821Z,82.20
2018-09-30T23:50:15.226Z,82.41
2018-09-30T23:52:44.730Z,82.77
2018-09-30T23:55:15.034Z,83.37
2018-09-30T23:57:44.410Z,82.59
